sensor_id;sensor_type;location;lat;lon;timestamp;temperature;humidity
54178;DHT22;40085;53.004;6.770;2023-09-19T00:00:06;14.60;99.90
54178;DHT22;40085;53.004;6.770;2023-09-19T00:02:32;14.50;99.90
54178;DHT22;40085;53.004;6.770;2023-09-19T00:04:58;14.50;99.90
54178;DHT22;40085;53.004;6.770;2023-09-19T00:07:24;14.50;99.90
54178;DHT22;40085;53.004;6.770;2023-09-19T00:09:49;14.40;99.90
54178;DHT22;40085;53.004;6.770;2023-09-19T00:12:15;14.40;99.90
54178;DHT22;40085;53.004;6.770;2023-09-19T00:14:41;14.40;99.90
54178;DHT22;40085;53.004;6.770;2023-09-19T00:17:06;14.30;99.90
54178;DHT22;40085;53.004;6.770;2023-09-19T00:19:36;14.30;99.90
54178;DHT22;40085;53.004;6.770;2023-09-19T00:22:03;14.20;99.90
54178;DHT22;40085;53.004;6.770;2023-09-19T00:24:29;14.20;99.90
54178;DHT22;40085;53.004;6.770;2023-09-19T00:26:56;14.20;99.90
54178;DHT22;40085;53.004;6.770;2023-09-19T00:29:25;14.10;99.90
54178;DHT22;40085;53.004;6.770;2023-09-19T00:31:55;14.10;99.90
54178;DHT22;40085;53.004;6.770;2023-09-19T00:34:22;14.10;99.90
54178;DHT22;40085;53.004;6.770;2023-09-19T00:36:48;14.30;99.90
54178;DHT22;40085;53.004;6.770;2023-09-19T00:39:13;14.00;99.90
54178;DHT22;40085;53.004;6.770;2023-09-19T00:41:39;13.90;99.90
54178;DHT22;40085;53.004;6.770;2023-09-19T00:44:06;13.90;99.90
54178;DHT22;40085;53.004;6.770;2023-09-19T00:46:32;13.80;99.90
54178;DHT22;40085;53.004;6.770;2023-09-19T00:49:00;13.90;99.90
54178;DHT22;40085;53.004;6.770;2023-09-19T00:51:26;13.80;99.90
54178;DHT22;40085;53.004;6.770;2023-09-19T00:53:53;13.80;99.90
54178;DHT22;40085;53.004;6.770;2023-09-19T00:56:19;13.80;99.90
54178;DHT22;40085;53.004;6.770;2023-09-19T00:58:46;13.70;99.90
54178;DHT22;40085;53.004;6.770;2023-09-19T01:01:13;13.70;99.90
54178;DHT22;40085;53.004;6.770;2023-09-19T01:03:40;13.70;99.90
54178;DHT22;40085;53.004;6.770;2023-09-19T01:06:06;13.70;99.90
54178;DHT22;40085;53.004;6.770;2023-09-19T01:08:33;13.60;99.90
54178;DHT22;40085;53.004;6.770;2023-09-19T01:11:14;13.60;99.90
54178;DHT22;40085;53.004;6.770;2023-09-19T01:16:50;13.60;99.90
54178;DHT22;40085;53.004;6.770;2023-09-19T01:22:20;13.50;99.90
54178;DHT22;40085;53.004;6.770;2023-09-19T01:27:58;13.50;99.90
54178;DHT22;40085;53.004;6.770;2023-09-19T01:30:33;13.50;99.90
54178;DHT22;40085;53.004;6.770;2023-09-19T01:33:01;13.50;99.90
54178;DHT22;40085;53.004;6.770;2023-09-19T01:35:29;13.50;99.90
54178;DHT22;40085;53.004;6.770;2023-09-19T01:37:55;13.50;99.90
54178;DHT22;40085;53.004;6.770;2023-09-19T01:40:21;13.50;99.90
54178;DHT22;40085;53.004;6.770;2023-09-19T01:42:58;13.50;99.90
54178;DHT22;40085;53.004;6.770;2023-09-19T01:45:33;13.50;99.90
54178;DHT22;40085;53.004;6.770;2023-09-19T01:48:25;13.50;99.90
54178;DHT22;40085;53.004;6.770;2023-09-19T01:51:06;13.40;99.90
54178;DHT22;40085;53.004;6.770;2023-09-19T01:53:45;13.40;99.90
54178;DHT22;40085;53.004;6.770;2023-09-19T01:56:23;13.40;99.90
54178;DHT22;40085;53.004;6.770;2023-09-19T01:58:54;13.40;99.90
54178;DHT22;40085;53.004;6.770;2023-09-19T02:01:22;13.40;99.90
54178;DHT22;40085;53.004;6.770;2023-09-19T02:03:50;13.30;99.90
54178;DHT22;40085;53.004;6.770;2023-09-19T02:06:16;13.40;99.90
54178;DHT22;40085;53.004;6.770;2023-09-19T02:08:43;13.30;99.90
54178;DHT22;40085;53.004;6.770;2023-09-19T02:11:10;13.30;99.90
54178;DHT22;40085;53.004;6.770;2023-09-19T02:13:36;13.30;99.90
54178;DHT22;40085;53.004;6.770;2023-09-19T02:16:03;13.30;99.90
54178;DHT22;40085;53.004;6.770;2023-09-19T02:18:30;13.20;99.90
54178;DHT22;40085;53.004;6.770;2023-09-19T02:20:56;13.20;99.90
54178;DHT22;40085;53.004;6.770;2023-09-19T02:23:24;13.20;99.90
54178;DHT22;40085;53.004;6.770;2023-09-19T02:25:53;13.20;99.90
54178;DHT22;40085;53.004;6.770;2023-09-19T02:28:19;13.20;99.90
54178;DHT22;40085;53.004;6.770;2023-09-19T02:30:48;13.20;99.90
54178;DHT22;40085;53.004;6.770;2023-09-19T02:33:14;13.10;99.90
54178;DHT22;40085;53.004;6.770;2023-09-19T02:35:40;13.10;99.90
54178;DHT22;40085;53.004;6.770;2023-09-19T02:38:06;13.10;99.90
54178;DHT22;40085;53.004;6.770;2023-09-19T02:40:33;13.10;99.90
54178;DHT22;40085;53.004;6.770;2023-09-19T02:43:01;13.10;99.90
54178;DHT22;40085;53.004;6.770;2023-09-19T02:45:27;13.10;99.90
54178;DHT22;40085;53.004;6.770;2023-09-19T02:47:53;13.10;99.90
54178;DHT22;40085;53.004;6.770;2023-09-19T02:50:20;13.60;99.90
54178;DHT22;40085;53.004;6.770;2023-09-19T02:52:47;13.10;99.90
54178;DHT22;40085;53.004;6.770;2023-09-19T02:55:18;13.10;99.90
54178;DHT22;40085;53.004;6.770;2023-09-19T02:57:49;13.10;99.90
54178;DHT22;40085;53.004;6.770;2023-09-19T03:00:15;13.10;99.90
54178;DHT22;40085;53.004;6.770;2023-09-19T03:02:41;13.10;99.90
54178;DHT22;40085;53.004;6.770;2023-09-19T03:05:07;13.10;99.90
54178;DHT22;40085;53.004;6.770;2023-09-19T03:07:33;13.10;99.90
54178;DHT22;40085;53.004;6.770;2023-09-19T03:09:59;13.10;99.90
54178;DHT22;40085;53.004;6.770;2023-09-19T03:12:26;13.10;99.90
54178;DHT22;40085;53.004;6.770;2023-09-19T03:14:52;13.00;99.90
54178;DHT22;40085;53.004;6.770;2023-09-19T03:17:17;13.00;99.90
54178;DHT22;40085;53.004;6.770;2023-09-19T03:19:45;13.10;99.90
54178;DHT22;40085;53.004;6.770;2023-09-19T03:22:13;13.00;99.90
54178;DHT22;40085;53.004;6.770;2023-09-19T03:24:38;13.00;99.90
54178;DHT22;40085;53.004;6.770;2023-09-19T03:27:04;13.10;99.90
54178;DHT22;40085;53.004;6.770;2023-09-19T03:29:29;13.10;99.90
54178;DHT22;40085;53.004;6.770;2023-09-19T03:31:55;13.20;99.90
54178;DHT22;40085;53.004;6.770;2023-09-19T03:34:21;13.20;99.90
54178;DHT22;40085;53.004;6.770;2023-09-19T03:36:46;13.20;99.90
54178;DHT22;40085;53.004;6.770;2023-09-19T03:39:12;13.20;99.90
54178;DHT22;40085;53.004;6.770;2023-09-19T03:41:41;13.30;99.90
54178;DHT22;40085;53.004;6.770;2023-09-19T03:44:07;13.30;99.90
54178;DHT22;40085;53.004;6.770;2023-09-19T03:46:32;13.20;99.90
54178;DHT22;40085;53.004;6.770;2023-09-19T03:48:59;13.30;99.90
54178;DHT22;40085;53.004;6.770;2023-09-19T03:51:25;13.20;99.90
54178;DHT22;40085;53.004;6.770;2023-09-19T03:53:51;13.20;99.90
54178;DHT22;40085;53.004;6.770;2023-09-19T03:56:16;13.20;99.90
54178;DHT22;40085;53.004;6.770;2023-09-19T03:58:42;13.60;99.90
54178;DHT22;40085;53.004;6.770;2023-09-19T04:01:07;13.10;99.90
54178;DHT22;40085;53.004;6.770;2023-09-19T04:03:35;13.10;99.90
54178;DHT22;40085;53.004;6.770;2023-09-19T04:06:15;13.10;99.90
54178;DHT22;40085;53.004;6.770;2023-09-19T04:08:41;13.00;99.90
54178;DHT22;40085;53.004;6.770;2023-09-19T04:11:07;13.10;99.90
54178;DHT22;40085;53.004;6.770;2023-09-19T04:13:32;13.00;99.90
54178;DHT22;40085;53.004;6.770;2023-09-19T04:15:58;13.00;99.90
54178;DHT22;40085;53.004;6.770;2023-09-19T04:18:23;13.00;99.90
54178;DHT22;40085;53.004;6.770;2023-09-19T04:20:50;13.10;99.90
54178;DHT22;40085;53.004;6.770;2023-09-19T04:23:16;13.10;99.90
54178;DHT22;40085;53.004;6.770;2023-09-19T04:25:42;13.10;99.90
54178;DHT22;40085;53.004;6.770;2023-09-19T04:28:08;13.10;99.90
54178;DHT22;40085;53.004;6.770;2023-09-19T04:30:37;13.10;99.90
54178;DHT22;40085;53.004;6.770;2023-09-19T04:33:03;13.20;99.90
54178;DHT22;40085;53.004;6.770;2023-09-19T04:35:29;13.20;99.90
54178;DHT22;40085;53.004;6.770;2023-09-19T04:37:57;13.20;99.90
54178;DHT22;40085;53.004;6.770;2023-09-19T04:40:23;13.30;99.90
54178;DHT22;40085;53.004;6.770;2023-09-19T04:42:58;13.30;99.90
54178;DHT22;40085;53.004;6.770;2023-09-19T04:45:28;13.30;99.90
54178;DHT22;40085;53.004;6.770;2023-09-19T04:47:54;13.30;99.90
54178;DHT22;40085;53.004;6.770;2023-09-19T04:50:20;13.40;99.90
54178;DHT22;40085;53.004;6.770;2023-09-19T04:52:53;13.40;99.90
54178;DHT22;40085;53.004;6.770;2023-09-19T04:55:19;13.40;99.90
54178;DHT22;40085;53.004;6.770;2023-09-19T04:57:45;13.40;99.90
54178;DHT22;40085;53.004;6.770;2023-09-19T05:00:19;13.40;99.90
54178;DHT22;40085;53.004;6.770;2023-09-19T05:02:46;13.50;99.90
54178;DHT22;40085;53.004;6.770;2023-09-19T05:05:12;13.50;99.90
54178;DHT22;40085;53.004;6.770;2023-09-19T05:07:41;13.50;99.90
54178;DHT22;40085;53.004;6.770;2023-09-19T05:10:07;13.50;99.90
54178;DHT22;40085;53.004;6.770;2023-09-19T05:12:36;13.50;99.90
54178;DHT22;40085;53.004;6.770;2023-09-19T05:15:05;13.50;99.90
54178;DHT22;40085;53.004;6.770;2023-09-19T05:17:34;13.50;99.90
54178;DHT22;40085;53.004;6.770;2023-09-19T05:20:01;13.50;99.90
54178;DHT22;40085;53.004;6.770;2023-09-19T05:22:43;13.50;99.90
54178;DHT22;40085;53.004;6.770;2023-09-19T05:25:10;13.40;99.90
54178;DHT22;40085;53.004;6.770;2023-09-19T05:27:36;13.50;99.90
54178;DHT22;40085;53.004;6.770;2023-09-19T05:30:02;13.50;99.90
54178;DHT22;40085;53.004;6.770;2023-09-19T05:32:28;13.50;99.90
54178;DHT22;40085;53.004;6.770;2023-09-19T05:34:53;13.50;99.90
54178;DHT22;40085;53.004;6.770;2023-09-19T05:37:21;13.50;99.90
54178;DHT22;40085;53.004;6.770;2023-09-19T05:39:48;13.50;99.90
54178;DHT22;40085;53.004;6.770;2023-09-19T05:42:13;13.50;99.90
54178;DHT22;40085;53.004;6.770;2023-09-19T05:44:39;13.80;99.90
54178;DHT22;40085;53.004;6.770;2023-09-19T05:47:05;13.50;99.90
54178;DHT22;40085;53.004;6.770;2023-09-19T05:49:30;13.40;99.90
54178;DHT22;40085;53.004;6.770;2023-09-19T05:51:56;13.70;99.90
54178;DHT22;40085;53.004;6.770;2023-09-19T05:54:24;13.50;99.90
54178;DHT22;40085;53.004;6.770;2023-09-19T05:56:49;13.40;99.90
54178;DHT22;40085;53.004;6.770;2023-09-19T05:59:18;13.30;99.90
54178;DHT22;40085;53.004;6.770;2023-09-19T06:01:45;13.50;99.90
54178;DHT22;40085;53.004;6.770;2023-09-19T06:04:12;13.50;99.90
54178;DHT22;40085;53.004;6.770;2023-09-19T06:06:38;13.50;99.90
54178;DHT22;40085;53.004;6.770;2023-09-19T06:09:06;13.40;99.90
54178;DHT22;40085;53.004;6.770;2023-09-19T06:11:34;13.40;99.90
54178;DHT22;40085;53.004;6.770;2023-09-19T06:14:01;13.50;99.90
54178;DHT22;40085;53.004;6.770;2023-09-19T06:16:28;13.50;99.90
54178;DHT22;40085;53.004;6.770;2023-09-19T06:18:54;13.40;99.90
54178;DHT22;40085;53.004;6.770;2023-09-19T06:21:22;13.40;99.90
54178;DHT22;40085;53.004;6.770;2023-09-19T06:23:48;13.50;99.90
54178;DHT22;40085;53.004;6.770;2023-09-19T06:26:13;13.40;99.90
54178;DHT22;40085;53.004;6.770;2023-09-19T06:28:39;13.50;99.90
54178;DHT22;40085;53.004;6.770;2023-09-19T06:31:05;13.50;99.90
54178;DHT22;40085;53.004;6.770;2023-09-19T06:33:35;13.50;99.90
54178;DHT22;40085;53.004;6.770;2023-09-19T06:36:04;13.60;99.90
54178;DHT22;40085;53.004;6.770;2023-09-19T06:38:30;13.60;99.90
54178;DHT22;40085;53.004;6.770;2023-09-19T06:40:56;13.60;99.90
54178;DHT22;40085;53.004;6.770;2023-09-19T06:43:23;13.70;99.90
54178;DHT22;40085;53.004;6.770;2023-09-19T06:45:49;13.70;99.90
54178;DHT22;40085;53.004;6.770;2023-09-19T06:48:17;13.70;99.90
54178;DHT22;40085;53.004;6.770;2023-09-19T06:50:43;13.80;99.90
54178;DHT22;40085;53.004;6.770;2023-09-19T06:53:10;13.80;99.90
54178;DHT22;40085;53.004;6.770;2023-09-19T06:55:35;13.90;99.90
54178;DHT22;40085;53.004;6.770;2023-09-19T06:58:02;13.90;99.90
54178;DHT22;40085;53.004;6.770;2023-09-19T07:00:28;14.00;99.90
54178;DHT22;40085;53.004;6.770;2023-09-19T07:03:03;14.10;99.90
54178;DHT22;40085;53.004;6.770;2023-09-19T07:05:32;14.20;99.90
54178;DHT22;40085;53.004;6.770;2023-09-19T07:08:01;14.20;99.90
54178;DHT22;40085;53.004;6.770;2023-09-19T07:10:27;14.30;99.90
54178;DHT22;40085;53.004;6.770;2023-09-19T07:13:00;14.70;99.90
54178;DHT22;40085;53.004;6.770;2023-09-19T07:15:29;14.30;99.90
54178;DHT22;40085;53.004;6.770;2023-09-19T07:17:56;14.30;99.90
54178;DHT22;40085;53.004;6.770;2023-09-19T07:20:23;14.40;99.90
54178;DHT22;40085;53.004;6.770;2023-09-19T07:22:51;14.40;99.90
54178;DHT22;40085;53.004;6.770;2023-09-19T07:25:17;14.40;99.90
54178;DHT22;40085;53.004;6.770;2023-09-19T07:27:43;14.50;99.90
54178;DHT22;40085;53.004;6.770;2023-09-19T07:30:10;14.50;99.90
54178;DHT22;40085;53.004;6.770;2023-09-19T07:32:37;14.60;99.90
54178;DHT22;40085;53.004;6.770;2023-09-19T07:35:04;14.60;99.90
54178;DHT22;40085;53.004;6.770;2023-09-19T07:37:31;14.70;99.90
54178;DHT22;40085;53.004;6.770;2023-09-19T07:39:59;14.70;99.90
54178;DHT22;40085;53.004;6.770;2023-09-19T07:42:26;14.80;99.90
54178;DHT22;40085;53.004;6.770;2023-09-19T07:44:52;14.90;99.90
54178;DHT22;40085;53.004;6.770;2023-09-19T07:47:20;14.90;99.90
54178;DHT22;40085;53.004;6.770;2023-09-19T07:49:47;14.90;99.90
54178;DHT22;40085;53.004;6.770;2023-09-19T07:52:13;14.90;99.90
54178;DHT22;40085;53.004;6.770;2023-09-19T07:54:39;14.80;99.90
54178;DHT22;40085;53.004;6.770;2023-09-19T07:57:06;14.80;99.90
54178;DHT22;40085;53.004;6.770;2023-09-19T07:59:32;14.80;99.90
54178;DHT22;40085;53.004;6.770;2023-09-19T08:01:58;14.70;99.90
54178;DHT22;40085;53.004;6.770;2023-09-19T08:04:23;14.70;99.90
54178;DHT22;40085;53.004;6.770;2023-09-19T08:06:51;14.70;99.90
54178;DHT22;40085;53.004;6.770;2023-09-19T08:09:17;14.70;99.90
54178;DHT22;40085;53.004;6.770;2023-09-19T08:11:47;14.70;99.90
54178;DHT22;40085;53.004;6.770;2023-09-19T08:14:13;14.70;99.90
54178;DHT22;40085;53.004;6.770;2023-09-19T08:16:40;14.80;99.90
54178;DHT22;40085;53.004;6.770;2023-09-19T08:19:05;14.80;99.90
54178;DHT22;40085;53.004;6.770;2023-09-19T08:21:31;14.80;99.90
54178;DHT22;40085;53.004;6.770;2023-09-19T08:23:57;14.90;99.90
54178;DHT22;40085;53.004;6.770;2023-09-19T08:26:23;15.00;99.90
54178;DHT22;40085;53.004;6.770;2023-09-19T08:28:50;15.00;99.90
54178;DHT22;40085;53.004;6.770;2023-09-19T08:31:16;15.00;99.90
54178;DHT22;40085;53.004;6.770;2023-09-19T08:33:42;15.10;99.90
54178;DHT22;40085;53.004;6.770;2023-09-19T08:36:10;15.20;99.90
54178;DHT22;40085;53.004;6.770;2023-09-19T08:38:36;15.20;99.90
54178;DHT22;40085;53.004;6.770;2023-09-19T08:41:06;15.30;99.90
54178;DHT22;40085;53.004;6.770;2023-09-19T08:43:32;15.40;99.90
54178;DHT22;40085;53.004;6.770;2023-09-19T08:46:10;15.50;99.90
54178;DHT22;40085;53.004;6.770;2023-09-19T08:48:42;15.50;99.90
54178;DHT22;40085;53.004;6.770;2023-09-19T08:51:18;15.60;99.90
54178;DHT22;40085;53.004;6.770;2023-09-19T08:54:08;15.70;99.90
54178;DHT22;40085;53.004;6.770;2023-09-19T08:56:35;15.80;99.90
54178;DHT22;40085;53.004;6.770;2023-09-19T08:59:05;15.90;99.90
54178;DHT22;40085;53.004;6.770;2023-09-19T09:01:35;15.90;99.90
54178;DHT22;40085;53.004;6.770;2023-09-19T09:04:02;16.00;99.90
54178;DHT22;40085;53.004;6.770;2023-09-19T09:06:27;16.00;99.90
54178;DHT22;40085;53.004;6.770;2023-09-19T09:08:54;16.00;99.90
54178;DHT22;40085;53.004;6.770;2023-09-19T09:11:20;16.00;99.90
54178;DHT22;40085;53.004;6.770;2023-09-19T09:13:47;16.00;99.90
54178;DHT22;40085;53.004;6.770;2023-09-19T09:16:14;16.00;99.90
54178;DHT22;40085;53.004;6.770;2023-09-19T09:18:43;16.10;99.90
54178;DHT22;40085;53.004;6.770;2023-09-19T09:21:10;16.20;99.90
54178;DHT22;40085;53.004;6.770;2023-09-19T09:23:35;16.20;99.90
54178;DHT22;40085;53.004;6.770;2023-09-19T09:26:01;16.20;99.90
54178;DHT22;40085;53.004;6.770;2023-09-19T09:28:29;16.30;99.90
54178;DHT22;40085;53.004;6.770;2023-09-19T09:30:56;16.40;99.90
54178;DHT22;40085;53.004;6.770;2023-09-19T09:33:23;16.50;99.90
54178;DHT22;40085;53.004;6.770;2023-09-19T09:35:53;16.70;99.90
54178;DHT22;40085;53.004;6.770;2023-09-19T09:38:24;16.60;99.90
54178;DHT22;40085;53.004;6.770;2023-09-19T09:40:54;16.50;99.90
54178;DHT22;40085;53.004;6.770;2023-09-19T09:46:16;16.80;99.90
54178;DHT22;40085;53.004;6.770;2023-09-19T09:49:08;16.80;99.30
54178;DHT22;40085;53.004;6.770;2023-09-19T09:51:51;16.90;99.90
54178;DHT22;40085;53.004;6.770;2023-09-19T09:54:29;17.00;99.90
54178;DHT22;40085;53.004;6.770;2023-09-19T09:57:09;17.50;91.80
54178;DHT22;40085;53.004;6.770;2023-09-19T09:59:54;16.90;98.50
54178;DHT22;40085;53.004;6.770;2023-09-19T10:02:38;17.10;94.90
54178;DHT22;40085;53.004;6.770;2023-09-19T10:05:18;17.00;93.90
54178;DHT22;40085;53.004;6.770;2023-09-19T10:07:54;17.20;95.20
54178;DHT22;40085;53.004;6.770;2023-09-19T10:10:33;17.30;96.40
54178;DHT22;40085;53.004;6.770;2023-09-19T10:13:12;17.30;95.20
54178;DHT22;40085;53.004;6.770;2023-09-19T10:15:39;17.30;93.80
54178;DHT22;40085;53.004;6.770;2023-09-19T10:18:10;17.30;93.90
54178;DHT22;40085;53.004;6.770;2023-09-19T10:20:43;17.40;93.00
54178;DHT22;40085;53.004;6.770;2023-09-19T10:23:11;17.50;90.30
54178;DHT22;40085;53.004;6.770;2023-09-19T10:25:42;17.70;92.20
54178;DHT22;40085;53.004;6.770;2023-09-19T10:28:09;17.60;86.50
54178;DHT22;40085;53.004;6.770;2023-09-19T10:30:42;17.70;80.40
54178;DHT22;40085;53.004;6.770;2023-09-19T10:33:15;17.80;69.80
54178;DHT22;40085;53.004;6.770;2023-09-19T10:35:46;18.00;64.10
54178;DHT22;40085;53.004;6.770;2023-09-19T10:38:14;17.90;61.80
54178;DHT22;40085;53.004;6.770;2023-09-19T10:40:40;17.90;70.70
54178;DHT22;40085;53.004;6.770;2023-09-19T10:43:12;18.00;65.80
54178;DHT22;40085;53.004;6.770;2023-09-19T10:45:38;18.00;28.10
54178;DHT22;40085;53.004;6.770;2023-09-19T10:48:05;18.30;40.20
54178;DHT22;40085;53.004;6.770;2023-09-19T10:50:46;18.00;25.20
54178;DHT22;40085;53.004;6.770;2023-09-19T10:53:14;17.90;30.00
54178;DHT22;40085;53.004;6.770;2023-09-19T10:55:52;17.90;47.40
54178;DHT22;40085;53.004;6.770;2023-09-19T10:58:29;17.80;25.00
54178;DHT22;40085;53.004;6.770;2023-09-19T11:01:00;17.80;43.40
54178;DHT22;40085;53.004;6.770;2023-09-19T11:03:31;17.90;52.20
54178;DHT22;40085;53.004;6.770;2023-09-19T11:06:12;17.90;30.90
54178;DHT22;40085;53.004;6.770;2023-09-19T11:14:29;18.70;26.00
54178;DHT22;40085;53.004;6.770;2023-09-19T11:30:52;18.10;4.50
54178;DHT22;40085;53.004;6.770;2023-09-19T11:33:27;18.10;17.20
54178;DHT22;40085;53.004;6.770;2023-09-19T11:36:04;18.10;10.20
54178;DHT22;40085;53.004;6.770;2023-09-19T11:43:47;18.30;24.90
54178;DHT22;40085;53.004;6.770;2023-09-19T11:46:13;18.30;20.10
54178;DHT22;40085;53.004;6.770;2023-09-19T11:48:42;18.30;1.50
54178;DHT22;40085;53.004;6.770;2023-09-19T11:51:11;18.60;1.00
54178;DHT22;40085;53.004;6.770;2023-09-19T11:53:42;18.20;15.40
54178;DHT22;40085;53.004;6.770;2023-09-19T11:56:09;18.30;16.80
54178;DHT22;40085;53.004;6.770;2023-09-19T11:58:36;18.30;14.70
54178;DHT22;40085;53.004;6.770;2023-09-19T12:01:05;18.30;9.50
54178;DHT22;40085;53.004;6.770;2023-09-19T12:03:36;18.50;19.80
54178;DHT22;40085;53.004;6.770;2023-09-19T12:06:11;18.30;6.20
54178;DHT22;40085;53.004;6.770;2023-09-19T12:08:39;18.30;13.80
54178;DHT22;40085;53.004;6.770;2023-09-19T12:11:05;18.40;17.20
54178;DHT22;40085;53.004;6.770;2023-09-19T12:13:35;18.40;21.50
54178;DHT22;40085;53.004;6.770;2023-09-19T12:16:12;18.30;11.00
54178;DHT22;40085;53.004;6.770;2023-09-19T12:18:40;18.20;1.00
54178;DHT22;40085;53.004;6.770;2023-09-19T12:21:08;18.20;13.90
54178;DHT22;40085;53.004;6.770;2023-09-19T12:24:03;18.50;8.70
54178;DHT22;40085;53.004;6.770;2023-09-19T12:26:37;18.10;4.90
54178;DHT22;40085;53.004;6.770;2023-09-19T12:29:03;18.10;4.70
54178;DHT22;40085;53.004;6.770;2023-09-19T12:31:30;17.90;23.90
54178;DHT22;40085;53.004;6.770;2023-09-19T12:34:01;17.80;27.70
54178;DHT22;40085;53.004;6.770;2023-09-19T12:36:27;17.90;27.20
54178;DHT22;40085;53.004;6.770;2023-09-19T12:38:56;18.20;22.90
54178;DHT22;40085;53.004;6.770;2023-09-19T12:41:25;17.90;32.30
54178;DHT22;40085;53.004;6.770;2023-09-19T12:43:52;17.90;36.90
54178;DHT22;40085;53.004;6.770;2023-09-19T12:46:21;17.80;36.50
54178;DHT22;40085;53.004;6.770;2023-09-19T12:49:16;17.90;39.60
54178;DHT22;40085;53.004;6.770;2023-09-19T12:51:43;18.00;23.50
54178;DHT22;40085;53.004;6.770;2023-09-19T12:54:09;18.00;30.80
54178;DHT22;40085;53.004;6.770;2023-09-19T12:56:41;18.30;27.60
54178;DHT22;40085;53.004;6.770;2023-09-19T12:59:13;18.10;34.70
54178;DHT22;40085;53.004;6.770;2023-09-19T13:01:40;18.10;33.20
54178;DHT22;40085;53.004;6.770;2023-09-19T13:04:21;18.00;35.70
54178;DHT22;40085;53.004;6.770;2023-09-19T13:06:55;17.90;30.00
54178;DHT22;40085;53.004;6.770;2023-09-19T13:09:27;17.80;35.80
54178;DHT22;40085;53.004;6.770;2023-09-19T13:12:05;17.90;34.60
54178;DHT22;40085;53.004;6.770;2023-09-19T13:14:32;17.80;34.30
54178;DHT22;40085;53.004;6.770;2023-09-19T13:17:07;17.80;39.60
54178;DHT22;40085;53.004;6.770;2023-09-19T13:19:52;17.80;43.00
54178;DHT22;40085;53.004;6.770;2023-09-19T13:22:45;17.70;44.80
54178;DHT22;40085;53.004;6.770;2023-09-19T13:25:17;17.70;42.90
54178;DHT22;40085;53.004;6.770;2023-09-19T13:27:47;17.70;48.80
54178;DHT22;40085;53.004;6.770;2023-09-19T13:30:16;17.70;50.90
54178;DHT22;40085;53.004;6.770;2023-09-19T13:32:42;17.80;52.30
54178;DHT22;40085;53.004;6.770;2023-09-19T13:35:09;17.70;54.60
54178;DHT22;40085;53.004;6.770;2023-09-19T13:37:38;17.70;59.60
54178;DHT22;40085;53.004;6.770;2023-09-19T13:40:12;17.70;57.60
54178;DHT22;40085;53.004;6.770;2023-09-19T13:42:38;17.70;61.00
54178;DHT22;40085;53.004;6.770;2023-09-19T13:45:04;17.70;61.20
54178;DHT22;40085;53.004;6.770;2023-09-19T13:47:31;17.70;59.10
54178;DHT22;40085;53.004;6.770;2023-09-19T13:50:01;17.70;62.20
54178;DHT22;40085;53.004;6.770;2023-09-19T13:52:29;17.70;63.30
54178;DHT22;40085;53.004;6.770;2023-09-19T13:54:56;17.70;63.10
54178;DHT22;40085;53.004;6.770;2023-09-19T13:57:31;17.70;65.40
54178;DHT22;40085;53.004;6.770;2023-09-19T13:59:58;17.60;64.80
54178;DHT22;40085;53.004;6.770;2023-09-19T14:02:24;17.60;60.70
54178;DHT22;40085;53.004;6.770;2023-09-19T14:04:53;17.60;59.40
54178;DHT22;40085;53.004;6.770;2023-09-19T14:07:19;17.60;61.40
54178;DHT22;40085;53.004;6.770;2023-09-19T14:09:45;17.60;56.80
54178;DHT22;40085;53.004;6.770;2023-09-19T14:12:12;17.70;56.90
54178;DHT22;40085;53.004;6.770;2023-09-19T14:14:38;18.00;59.40
54178;DHT22;40085;53.004;6.770;2023-09-19T14:17:04;17.90;58.10
54178;DHT22;40085;53.004;6.770;2023-09-19T14:19:30;17.90;57.70
54178;DHT22;40085;53.004;6.770;2023-09-19T14:21:55;17.90;51.40
54178;DHT22;40085;53.004;6.770;2023-09-19T14:24:22;18.00;55.50
54178;DHT22;40085;53.004;6.770;2023-09-19T14:26:48;18.00;43.80
54178;DHT22;40085;53.004;6.770;2023-09-19T14:29:15;18.00;45.30
54178;DHT22;40085;53.004;6.770;2023-09-19T14:31:41;18.10;44.20
54178;DHT22;40085;53.004;6.770;2023-09-19T14:34:07;18.10;46.60
54178;DHT22;40085;53.004;6.770;2023-09-19T14:36:36;18.10;48.90
54178;DHT22;40085;53.004;6.770;2023-09-19T14:39:02;18.10;31.30
54178;DHT22;40085;53.004;6.770;2023-09-19T14:41:27;18.20;37.30
54178;DHT22;40085;53.004;6.770;2023-09-19T14:43:53;18.20;31.50
54178;DHT22;40085;53.004;6.770;2023-09-19T14:46:20;18.20;37.80
54178;DHT22;40085;53.004;6.770;2023-09-19T14:48:46;18.10;31.80
54178;DHT22;40085;53.004;6.770;2023-09-19T14:51:14;18.10;41.60
54178;DHT22;40085;53.004;6.770;2023-09-19T14:53:40;18.10;44.80
54178;DHT22;40085;53.004;6.770;2023-09-19T14:56:09;18.20;45.00
54178;DHT22;40085;53.004;6.770;2023-09-19T14:58:36;18.10;44.70
54178;DHT22;40085;53.004;6.770;2023-09-19T15:01:08;18.10;48.00
54178;DHT22;40085;53.004;6.770;2023-09-19T15:03:35;18.10;42.30
54178;DHT22;40085;53.004;6.770;2023-09-19T15:06:06;18.10;37.00
54178;DHT22;40085;53.004;6.770;2023-09-19T15:08:32;18.10;36.60
54178;DHT22;40085;53.004;6.770;2023-09-19T15:11:00;18.10;35.20
54178;DHT22;40085;53.004;6.770;2023-09-19T15:13:29;18.10;42.50
54178;DHT22;40085;53.004;6.770;2023-09-19T15:16:02;18.00;38.80
54178;DHT22;40085;53.004;6.770;2023-09-19T15:18:28;18.00;42.60
54178;DHT22;40085;53.004;6.770;2023-09-19T15:21:02;18.10;41.60
54178;DHT22;40085;53.004;6.770;2023-09-19T15:23:32;18.00;47.90
54178;DHT22;40085;53.004;6.770;2023-09-19T15:26:02;17.90;53.40
54178;DHT22;40085;53.004;6.770;2023-09-19T15:28:28;17.90;60.90
54178;DHT22;40085;53.004;6.770;2023-09-19T15:31:03;17.70;67.90
54178;DHT22;40085;53.004;6.770;2023-09-19T15:33:30;17.60;76.20
54178;DHT22;40085;53.004;6.770;2023-09-19T15:36:13;17.50;83.60
54178;DHT22;40085;53.004;6.770;2023-09-19T15:39:02;17.50;87.00
54178;DHT22;40085;53.004;6.770;2023-09-19T15:41:34;17.40;88.00
54178;DHT22;40085;53.004;6.770;2023-09-19T15:44:02;17.40;88.80
54178;DHT22;40085;53.004;6.770;2023-09-19T15:46:29;17.40;88.80
54178;DHT22;40085;53.004;6.770;2023-09-19T15:48:57;17.40;88.00
54178;DHT22;40085;53.004;6.770;2023-09-19T15:51:23;17.40;88.30
54178;DHT22;40085;53.004;6.770;2023-09-19T15:53:51;17.40;87.40
54178;DHT22;40085;53.004;6.770;2023-09-19T15:56:17;17.50;84.10
54178;DHT22;40085;53.004;6.770;2023-09-19T15:58:47;18.00;85.30
54178;DHT22;40085;53.004;6.770;2023-09-19T16:01:14;17.50;85.30
54178;DHT22;40085;53.004;6.770;2023-09-19T16:03:45;17.80;84.80
54178;DHT22;40085;53.004;6.770;2023-09-19T16:06:13;17.50;83.30
54178;DHT22;40085;53.004;6.770;2023-09-19T16:08:40;17.60;84.40
54178;DHT22;40085;53.004;6.770;2023-09-19T16:11:07;17.50;82.50
54178;DHT22;40085;53.004;6.770;2023-09-19T16:13:33;17.50;81.90
54178;DHT22;40085;53.004;6.770;2023-09-19T16:15:59;17.50;82.60